Time;durP1;ratioP1;P1;durP2;ratioP2;P2;SDS_P1;SDS_P2;PMS_P1;PMS_P2;Temp;Humidity;BMP_temperature;BMP_pressure;BME280_temperature;BME280_humidity;BME280_pressure;Samples;Min_cycle;Max_cycle;Signal;HPM_P1;HPM_P2
2023/01/06 00:00:36;;;;;;;;;0.00;0.00;;;;;20.82;54.85;101543.09;5043142;28;45893;-74
2023/01/06 00:03:02;;;;;;;;;0.00;0.00;;;;;20.93;55.30;101560.22;5075885;28;45677;-74
2023/01/06 00:05:30;;;;;;;;;0.00;0.00;;;;;21.02;54.90;101575.69;5073792;27;45547;-74
2023/01/06 00:07:56;;;;;;;;;1.00;0.00;;;;;20.96;55.31;101568.91;5039236;28;45742;-74
2023/01/06 00:10:22;;;;;;;;;0.00;0.00;;;;;20.99;55.45;101568.72;5046975;28;46768;-74
2023/01/06 00:12:48;;;;;;;;;0.00;0.00;;;;;21.01;55.43;101577.47;5042885;28;45697;-75
2023/01/06 00:15:15;;;;;;;;;2.00;0.00;;;;;20.88;55.20;101555.19;5060477;28;45233;-74
2023/01/06 00:17:40;;;;;;;;;0.00;0.00;;;;;20.91;55.06;101565.66;5055608;28;45498;-74
2023/01/06 00:20:06;;;;;;;;;0.25;0.00;;;;;21.03;54.88;101583.59;5058698;28;45730;-75
2023/01/06 00:22:32;;;;;;;;;0.00;0.00;;;;;21.03;54.79;101585.38;5070829;28;45411;-75
2023/01/06 00:24:57;;;;;;;;;0.25;0.00;;;;;21.04;55.36;101593.28;5059608;28;45619;-74
2023/01/06 00:27:22;;;;;;;;;0.00;0.00;;;;;20.99;55.09;101581.19;5054531;28;45518;-74
2023/01/06 00:29:49;;;;;;;;;0.00;0.00;;;;;21.03;55.33;101590.69;5074024;27;53576;-74
2023/01/06 00:32:15;;;;;;;;;0.00;0.00;;;;;20.99;55.47;101583.84;5037816;28;45517;-74
2023/01/06 00:34:40;;;;;;;;;0.00;0.00;;;;;20.99;54.93;101582.03;5041254;28;45190;-74
2023/01/06 00:37:06;;;;;;;;;0.00;0.00;;;;;20.96;54.99;101573.38;5056430;28;56737;-74
2023/01/06 00:39:31;;;;;;;;;1.00;0.00;;;;;20.99;55.27;101583.84;5056085;28;47032;-74
2023/01/06 00:42:02;;;;;;;;;0.00;0.00;;;;;21.01;55.16;101589.94;5061265;28;45726;-74
2023/01/06 00:44:36;;;;;;;;;0.00;0.00;;;;;21.00;54.75;101590.88;5089694;27;45424;-75
2023/01/06 00:47:03;;;;;;;;;0.00;0.00;;;;;20.99;55.18;101602.47;5054705;28;45367;-75
2023/01/06 00:49:29;;;;;;;;;0.00;0.00;;;;;20.93;55.05;101582.41;5056928;28;45438;-74
2023/01/06 00:51:54;;;;;;;;;0.00;0.00;;;;;21.00;55.09;101588.19;5056433;28;45394;-75
2023/01/06 00:54:20;;;;;;;;;0.00;0.00;;;;;21.01;55.24;101584.63;5057779;28;45419;-75
2023/01/06 00:56:47;;;;;;;;;0.00;0.00;;;;;20.98;55.23;101601.63;5056007;28;47588;-75
2023/01/06 00:59:17;;;;;;;;;2.50;0.00;;;;;20.98;54.94;101590.09;5058202;28;46095;-75
2023/01/06 01:01:43;;;;;;;;;1.00;0.00;;;;;20.97;55.25;101593.72;5038574;28;45446;-74
2023/01/06 01:04:09;;;;;;;;;0.00;0.00;;;;;20.91;54.84;101584.28;5040183;28;47160;-75
2023/01/06 01:06:36;;;;;;;;;0.00;0.00;;;;;20.87;55.20;101582.72;5068303;27;45265;-74
2023/01/06 01:09:02;;;;;;;;;0.00;0.00;;;;;20.98;54.78;101596.31;5071788;28;48163;-74
2023/01/06 01:14:13;;;;;;;;;0.00;0.00;;;;;21.00;54.82;101604.16;5051766;28;45323;-74
2023/01/06 01:16:39;;;;;;;;;1.00;0.00;;;;;20.95;54.78;101583.16;5039376;28;45883;-74
2023/01/06 01:19:05;;;;;;;;;0.00;0.00;;;;;20.97;54.84;101583.94;5056760;28;45851;-75
2023/01/06 01:21:30;;;;;;;;;0.00;0.00;;;;;20.97;55.24;101591.91;5039120;28;45328;-74
2023/01/06 01:23:55;;;;;;;;;0.00;0.00;;;;;20.96;54.85;101590.19;5056822;28;45379;-74
2023/01/06 01:26:21;;;;;;;;;0.00;0.00;;;;;20.97;54.66;101583.06;5057894;28;55903;-75
2023/01/06 01:28:46;;;;;;;;;0.00;0.00;;;;;20.97;54.79;101593.72;5053290;28;55783;-74
2023/01/06 01:31:12;;;;;;;;;0.00;0.00;;;;;20.92;54.99;101578.00;5057173;28;45791;-75
2023/01/06 01:33:38;;;;;;;;;0.75;0.00;;;;;20.97;55.03;101585.75;5039040;28;45332;-75
2023/01/06 01:36:12;;;;;;;;;0.00;0.00;;;;;20.95;54.73;101575.19;5072832;27;48704;-74
2023/01/06 01:38:37;;;;;;;;;0.00;0.00;;;;;20.92;54.84;101566.53;5050676;28;45537;-75
2023/01/06 01:41:04;;;;;;;;;0.00;0.00;;;;;20.93;54.95;101573.53;5056375;28;66939;-74
2023/01/06 01:43:50;;;;;;;;;0.00;0.00;;;;;20.96;55.25;101573.38;5038496;28;45566;-75
2023/01/06 01:46:20;;;;;;;;;0.00;0.00;;;;;20.96;54.91;101568.03;5054225;28;45581;-75
2023/01/06 01:48:47;;;;;;;;;0.00;0.00;;;;;20.95;55.08;101567.19;5037751;28;46333;-75
2023/01/06 01:51:15;;;;;;;;;0.00;0.00;;;;;20.95;54.96;101559.22;5040124;28;46138;-74
2023/01/06 01:53:44;;;;;;;;;0.00;0.00;;;;;20.95;55.11;101555.72;5057665;28;45942;-74
2023/01/06 01:56:13;;;;;;;;;0.00;0.00;;;;;20.94;55.28;101561.97;5076260;27;45347;-74
2023/01/06 01:58:44;;;;;;;;;0.00;0.00;;;;;20.95;55.08;101564.53;5092162;27;45509;-74
2023/01/06 02:01:10;;;;;;;;;0.00;0.00;;;;;20.95;54.81;101563.69;5059891;28;45877;-74
2023/01/06 02:03:37;;;;;;;;;0.00;0.00;;;;;20.91;54.91;101563.00;5041091;28;45473;-75
2023/01/06 02:06:04;;;;;;;;;0.00;0.00;;;;;20.92;55.07;101555.88;5060536;28;45443;-75
2023/01/06 02:08:39;;;;;;;;;1.00;0.00;;;;;20.92;54.72;101561.19;5038984;28;48181;-74
2023/01/06 02:11:06;;;;;;;;;0.00;0.00;;;;;20.85;54.53;101540.25;5053847;28;45305;-74
2023/01/06 02:13:32;;;;;;;;;0.00;0.00;;;;;20.91;54.87;101549.72;5041698;28;45285;-74
2023/01/06 02:16:33;;;;;;;;;0.00;0.00;;;;;20.92;54.81;101555.88;5057424;28;45392;-75
2023/01/06 02:19:03;;;;;;;;;0.00;0.00;;;;;20.92;54.54;101559.38;5045974;28;46101;-75
2023/01/06 02:21:41;;;;;;;;;0.00;0.00;;;;;20.92;55.15;101558.53;5059197;28;45546;-75
2023/01/06 02:24:13;;;;;;;;;0.00;0.00;;;;;20.92;54.85;101555.88;5058340;28;45477;-75
2023/01/06 02:26:45;;;;;;;;;0.00;0.00;;;;;20.92;54.97;101563.84;5041088;28;45455;-75
2023/01/06 02:29:52;;;;;;;;;0.00;0.00;;;;;20.91;55.01;101556.81;5061876;28;46737;-75
2023/01/06 02:32:36;;;;;;;;;0.00;0.00;;;;;20.90;54.80;101561.28;5042272;28;45507;-75
2023/01/06 02:36:06;;;;;;;;;;;;;;;;;;;;;
2023/01/06 02:39:22;;;;;;;;;0.00;0.00;;;;;20.90;54.76;101549.78;5057832;28;72760;-75
2023/01/06 02:42:14;;;;;;;;;0.00;0.00;;;;;20.86;55.06;101546.44;5067903;27;45578;-74
2023/01/06 02:45:00;;;;;;;;;0.00;0.00;;;;;20.90;54.93;101547.97;5058413;28;45885;-74
2023/01/06 02:47:58;;;;;;;;;0.00;0.00;;;;;20.90;54.99;101542.66;5061082;28;45399;-73
2023/01/06 02:50:23;;;;;;;;;0.00;0.00;;;;;20.90;54.95;101539.16;5056172;28;45668;-74
2023/01/06 02:53:10;;;;;;;;;0.33;0.00;;;;;20.91;54.97;101543.50;5056846;28;46950;-74
2023/01/06 02:55:45;;;;;;;;;0.00;0.00;;;;;20.88;54.91;101522.41;5056705;28;45658;-75
2023/01/06 02:58:15;;;;;;;;;0.00;0.00;;;;;20.90;54.93;101532.00;5037075;28;45313;-75
2023/01/06 03:01:09;;;;;;;;;0.00;0.00;;;;;20.91;54.59;101523.09;5043027;28;46469;-75
2023/01/06 03:03:36;;;;;;;;;0.00;0.00;;;;;20.86;54.62;101517.19;5055714;28;46058;-75
2023/01/06 03:06:07;;;;;;;;;0.00;0.00;;;;;20.84;54.98;101509.28;5068453;28;45714;-75
2023/01/06 03:08:34;;;;;;;;;0.00;0.00;;;;;20.86;54.68;101502.06;5058795;27;45668;-76
2023/01/06 03:11:01;;;;;;;;;0.00;0.00;;;;;20.77;54.72;101483.97;5059689;28;45400;-75
2023/01/06 03:13:47;;;;;;;;;0.00;0.00;;;;;20.88;54.66;101512.63;5055882;28;45443;-75
2023/01/06 03:16:13;;;;;;;;;0.00;0.00;;;;;20.87;54.64;101510.91;5057517;28;45373;-76
2023/01/06 03:18:40;;;;;;;;;0.00;0.00;;;;;20.88;54.72;101517.09;5034390;28;51929;-76
2023/01/06 03:21:10;;;;;;;;;0.00;0.00;;;;;20.88;54.51;101507.31;5059171;28;45604;-75
2023/01/06 03:23:37;;;;;;;;;0.50;0.00;;;;;20.88;54.62;101517.09;5072283;27;48515;-75
2023/01/06 03:26:03;;;;;;;;;0.00;0.00;;;;;20.90;54.47;101520.53;5043913;28;45904;-75
2023/01/06 03:28:38;;;;;;;;;0.00;0.00;;;;;20.89;54.55;101524.97;5052779;28;47325;-74
2023/01/06 03:31:19;;;;;;;;;0.00;0.00;;;;;20.89;54.43;101521.44;5056940;28;45417;-75
2023/01/06 03:34:14;;;;;;;;;0.00;0.00;;;;;20.84;54.89;101511.06;5056110;28;47826;-75
2023/01/06 03:36:52;;;;;;;;;0.00;0.00;;;;;20.88;54.47;101512.63;5056409;28;47021;-75
2023/01/06 03:39:23;;;;;;;;;0.00;0.00;;;;;20.86;55.02;101501.22;5053492;28;45374;-75
2023/01/06 03:45:00;;;;;;;;;0.25;0.00;;;;;20.84;54.63;101506.63;5066056;28;45473;-75
2023/01/06 03:47:49;;;;;;;;;0.00;0.00;;;;;20.85;54.45;101512.78;5069705;28;46262;-75
2023/01/06 03:50:23;;;;;;;;;0.00;0.00;;;;;20.86;54.63;101507.38;5071441;27;45301;-75
2023/01/06 03:53:18;;;;;;;;;0.00;0.00;;;;;20.84;54.56;101505.75;5057557;28;45419;-75
2023/01/06 03:55:53;;;;;;;;;0.00;0.00;;;;;20.82;54.69;101497.88;5056555;28;45406;-75
2023/01/06 03:58:24;;;;;;;;;0.00;0.00;;;;;20.86;54.79;101493.25;5053205;28;45556;-75
2023/01/06 04:00:49;;;;;;;;;0.00;0.00;;;;;20.84;54.72;101495.97;5041924;28;45352;-75
2023/01/06 04:03:15;;;;;;;;;0.00;0.00;;;;;20.85;54.62;101481.72;5052436;28;45475;-74
2023/01/06 04:05:40;;;;;;;;;0.00;0.00;;;;;20.80;54.17;101472.28;5058506;28;45915;-75
2023/01/06 04:08:06;;;;;;;;;0.00;0.00;;;;;20.81;54.50;101479.34;5037117;28;45391;-76
2023/01/06 04:10:31;;;;;;;;;1.00;0.00;;;;;20.83;54.32;101488.94;5040710;28;45192;-75
2023/01/06 04:12:56;;;;;;;;;0.00;0.00;;;;;20.85;54.49;101480.88;5044186;28;45703;-75
2023/01/06 04:15:24;;;;;;;;;0.00;0.00;;;;;20.84;54.69;101484.47;5057768;28;56976;-75
2023/01/06 04:17:50;;;;;;;;;0.00;0.00;;;;;20.81;54.63;101488.16;5035305;28;45345;-75
2023/01/06 04:20:19;;;;;;;;;0.00;0.00;;;;;20.83;54.59;101486.28;5091325;27;45491;-75
2023/01/06 04:22:45;;;;;;;;;0.00;0.00;;;;;20.79;54.53;101471.44;5070327;27;45229;-75
2023/01/06 04:25:11;;;;;;;;;0.00;0.00;;;;;20.84;54.61;101492.44;5041212;28;46977;-75
2023/01/06 04:27:36;;;;;;;;;0.00;0.00;;;;;20.80;54.26;101493.56;5053886;28;45561;-75
2023/01/06 04:30:02;;;;;;;;;0.00;0.00;;;;;20.84;54.69;101497.75;5057464;28;57585;-75
2023/01/06 04:32:27;;;;;;;;;1.00;0.00;;;;;20.79;54.51;101490.06;5070831;28;45599;-75
2023/01/06 04:34:53;;;;;;;;;0.00;0.00;;;;;20.79;54.34;101489.22;5041041;28;47268;-75
2023/01/06 04:37:18;;;;;;;;;0.00;0.00;;;;;20.84;54.80;101495.09;5055850;28;45530;-75
2023/01/06 04:39:44;;;;;;;;;0.00;0.00;;;;;20.78;54.20;101485.69;5055443;28;57869;-75
2023/01/06 04:42:09;;;;;;;;;0.00;0.00;;;;;20.81;54.20;101484.66;5053911;28;45862;-75
2023/01/06 04:44:35;;;;;;;;;0.00;0.00;;;;;20.82;54.35;101481.03;5055362;28;57482;-75
2023/01/06 04:47:00;;;;;;;;;0.00;0.00;;;;;20.79;54.29;101474.09;5055819;28;45407;-75
2023/01/06 04:49:25;;;;;;;;;0.00;0.00;;;;;20.81;54.13;101477.53;5059461;28;45393;-74
2023/01/06 04:51:51;;;;;;;;;0.00;0.00;;;;;20.82;54.59;101481.91;5055652;28;53937;-75
2023/01/06 04:54:16;;;;;;;;;0.00;0.00;;;;;20.78;54.58;101464.41;5057344;28;46763;-75
2023/01/06 04:56:42;;;;;;;;;0.00;0.00;;;;;20.76;54.52;101458.31;5039015;28;45420;-76
2023/01/06 04:59:07;;;;;;;;;0.00;0.00;;;;;20.81;54.38;101466.88;5056151;28;45510;-75
2023/01/06 05:01:33;;;;;;;;;0.00;0.00;;;;;20.78;54.03;101456.41;5073606;28;45532;-75
2023/01/06 05:04:01;;;;;;;;;0.00;0.00;;;;;20.80;54.43;101454.53;5073295;27;46007;-75
2023/01/06 05:06:26;;;;;;;;;0.00;0.00;;;;;20.81;54.57;101460.72;5040762;28;45565;-75
2023/01/06 05:08:51;;;;;;;;;0.00;0.00;;;;;20.76;54.22;101455.66;5048878;28;56351;-75
2023/01/06 05:11:19;;;;;;;;;0.00;0.00;;;;;20.78;54.61;101452.91;5059236;28;45188;-76
2023/01/06 05:13:44;;;;;;;;;0.00;0.00;;;;;20.78;54.15;101458.22;5035298;28;47317;-75
2023/01/06 05:16:16;;;;;;;;;0.00;0.00;;;;;20.80;54.58;101464.31;5056746;28;58633;-75
2023/01/06 05:18:41;;;;;;;;;0.00;0.00;;;;;20.80;53.95;101453.66;5051753;28;45725;-75
2023/01/06 05:21:07;;;;;;;;;0.00;0.00;;;;;20.78;54.43;101460.91;5057636;28;45554;-75
2023/01/06 05:23:32;;;;;;;;;0.00;0.00;;;;;20.78;53.97;101472.38;5084150;27;49650;-75
2023/01/06 05:25:57;;;;;;;;;0.00;0.00;;;;;20.75;54.39;101477.91;5043029;28;45295;-75
2023/01/06 05:28:23;;;;;;;;;0.00;0.00;;;;;20.75;54.17;101469.03;5092728;27;45577;-75
2023/01/06 05:30:48;;;;;;;;;0.00;0.00;;;;;20.76;54.29;101482.25;5061345;28;45477;-76
2023/01/06 05:33:14;;;;;;;;;0.00;0.00;;;;;20.78;54.14;101474.19;5038778;28;65273;-75
2023/01/06 05:35:42;;;;;;;;;0.00;0.00;;;;;20.76;54.49;101470.78;5055265;28;45919;-75
2023/01/06 05:38:08;;;;;;;;;0.00;0.00;;;;;20.72;54.32;101472.75;5039929;28;45442;-77
2023/01/06 05:40:34;;;;;;;;;0.00;0.00;;;;;20.77;53.98;101483.09;5043069;28;46268;-75
2023/01/06 05:42:59;;;;;;;;;1.00;0.00;;;;;20.69;54.36;101472.91;5078264;27;47396;-74
2023/01/06 05:45:25;;;;;;;;;0.00;0.00;;;;;20.75;54.04;101482.34;5049683;28;45630;-74
2023/01/06 05:47:51;;;;;;;;;0.00;0.00;;;;;20.77;54.53;101493.75;5074106;27;45432;-74
2023/01/06 05:50:17;;;;;;;;;0.00;0.00;;;;;20.77;54.17;101493.75;5060747;28;45462;-74
2023/01/06 05:52:42;;;;;;;;;0.00;0.00;;;;;20.76;54.21;101495.56;5059637;28;45363;-74
2023/01/06 05:55:08;;;;;;;;;0.00;0.00;;;;;20.76;54.21;101487.56;5060705;28;45225;-74
2023/01/06 05:57:34;;;;;;;;;0.00;0.00;;;;;20.73;54.54;101481.56;5041804;28;45693;-74
2023/01/06 06:00:04;;;;;;;;;0.00;0.00;;;;;20.76;54.44;101486.72;5043370;28;45612;-75
2023/01/06 06:02:35;;;;;;;;;0.00;0.00;;;;;20.62;54.09;101458.25;5037988;28;47845;-74
2023/01/06 06:05:04;;;;;;;;;0.00;0.00;;;;;20.52;54.13;101441.94;5040269;28;45589;-74
2023/01/06 06:07:29;;;;;;;;;0.00;0.00;;;;;20.76;54.09;101484.06;5037915;28;45484;-74
2023/01/06 06:09:55;;;;;;;;;0.00;0.00;;;;;20.67;54.57;101472.16;5041282;28;45602;-74
2023/01/06 06:12:20;;;;;;;;;0.50;0.00;;;;;20.63;54.36;101470.63;5041754;28;48306;-74
2023/01/06 06:14:45;;;;;;;;;0.00;0.00;;;;;20.56;54.17;101454.13;5059755;28;45407;-74
2023/01/06 06:17:11;;;;;;;;;0.00;0.00;;;;;20.73;54.12;101498.38;5057450;28;65051;-75
2023/01/06 06:19:36;;;;;;;;;0.00;0.00;;;;;20.75;54.42;101496.53;5058821;28;55836;-74
2023/01/06 06:22:01;;;;;;;;;0.00;0.00;;;;;20.73;54.25;101492.22;5066659;27;56086;-74
2023/01/06 06:24:29;;;;;;;;;1.00;0.00;;;;;20.75;54.19;101493.88;5059290;28;45300;-75
2023/01/06 06:26:57;;;;;;;;;0.00;0.00;;;;;20.60;54.33;101468.97;5074920;27;45441;-75
2023/01/06 06:29:23;;;;;;;;;0.00;0.00;;;;;20.62;54.24;101480.38;5039245;28;45811;-75
2023/01/06 06:31:48;;;;;;;;;0.00;0.00;;;;;20.70;53.98;101495.03;5041731;28;48052;-74
2023/01/06 06:34:13;;;;;;;;;0.00;0.00;;;;;20.72;54.32;101493.19;5035820;28;45720;-75
2023/01/06 06:36:39;;;;;;;;;0.00;0.00;;;;;20.69;53.91;101486.22;5058544;28;45492;-74
2023/01/06 06:39:04;;;;;;;;;0.00;0.00;;;;;20.67;54.46;101485.47;5041413;28;60974;-75
2023/01/06 06:41:29;;;;;;;;;0.00;0.00;;;;;20.73;54.15;101497.53;5059492;28;46301;-75
2023/01/06 06:43:55;;;;;;;;;0.00;0.00;;;;;20.72;54.13;101491.38;5043599;28;45367;-75
2023/01/06 06:46:21;;;;;;;;;0.00;0.00;;;;;20.72;54.03;101494.03;5060997;28;45317;-75
2023/01/06 06:48:48;;;;;;;;;0.75;0.00;;;;;20.72;54.35;101493.19;5053380;28;45332;-74
2023/01/06 06:51:15;;;;;;;;;0.00;0.00;;;;;20.71;54.09;101494.97;5051244;28;45888;-74
2023/01/06 06:53:41;;;;;;;;;0.00;0.00;;;;;20.69;54.03;101496.84;5063806;28;45807;-74
2023/01/06 06:56:07;;;;;;;;;0.00;0.00;;;;;20.62;54.34;101493.69;5062357;28;45466;-74
2023/01/06 06:58:34;;;;;;;;;0.00;0.00;;;;;20.70;53.97;101503.03;5090611;27;45487;-75
2023/01/06 07:01:08;;;;;;;;;0.00;0.00;;;;;20.70;54.03;101506.56;5050255;28;48374;-74
2023/01/06 07:03:33;;;;;;;;;0.00;0.00;;;;;20.72;53.93;101512.66;5062590;28;45365;-75
2023/01/06 07:05:59;;;;;;;;;0.00;0.00;;;;;20.72;53.95;101504.66;5093994;27;45444;-74
2023/01/06 07:08:24;;;;;;;;;0.00;0.00;;;;;20.69;53.89;101499.53;5061307;28;45295;-76
2023/01/06 07:10:50;;;;;;;;;0.00;0.00;;;;;20.72;53.91;101509.13;5078710;28;46609;-74
2023/01/06 07:13:16;;;;;;;;;0.00;0.00;;;;;20.71;54.30;101504.75;5064877;27;45385;-78
2023/01/06 07:15:41;;;;;;;;;0.00;0.00;;;;;20.73;54.08;101510.84;5047806;28;45425;-74
2023/01/06 07:18:07;;;;;;;;;0.00;0.00;;;;;20.74;53.93;101523.22;5057387;28;45551;-74
2023/01/06 07:20:34;;;;;;;;;0.00;0.00;;;;;20.80;54.24;101526.34;5063409;28;45347;-74
2023/01/06 07:23:02;;;;;;;;;0.00;0.00;;;;;20.82;53.85;101524.47;5062131;28;45584;-74
2023/01/06 07:25:28;;;;;;;;;0.00;0.00;;;;;20.87;53.94;101521.53;5045440;28;45474;-75
2023/01/06 07:27:58;;;;;;;;;0.50;0.00;;;;;20.87;54.13;101516.22;5037064;28;45399;-78
2023/01/06 07:30:24;;;;;;;;;0.25;0.00;;;;;20.74;52.83;101516.06;5059589;28;46124;-77
2023/01/06 07:32:50;;;;;;;;;0.00;0.00;;;;;20.54;52.60;101517.19;5055546;28;45578;-80
2023/01/06 07:35:16;;;;;;;;;0.00;0.00;;;;;20.28;52.54;101508.84;5043151;28;45483;-81
2023/01/06 07:37:42;;;;;;;;;0.00;0.00;;;;;20.03;52.29;101504.03;5057357;28;45304;-77
2023/01/06 07:40:10;;;;;;;;;0.25;0.00;;;;;19.88;51.82;101518.13;5059326;28;45883;-74
2023/01/06 07:42:35;;;;;;;;;0.00;0.00;;;;;19.67;52.06;101520.09;5056986;28;45367;-74
2023/01/06 07:45:02;;;;;;;;;0.00;0.00;;;;;19.47;52.01;101518.50;5058184;28;45268;-73
2023/01/06 07:47:27;;;;;;;;;0.00;0.00;;;;;19.30;52.00;101530.84;5060259;28;45424;-74
2023/01/06 07:49:52;;;;;;;;;1.00;0.00;;;;;19.10;51.61;101520.38;5040348;28;48059;-76
2023/01/06 07:52:18;;;;;;;;;0.00;0.00;;;;;18.98;51.99;101527.16;5053395;28;47594;-74
2023/01/06 07:54:43;;;;;;;;;0.00;0.00;;;;;18.81;51.78;101522.66;5059131;28;45790;-74
2023/01/06 07:57:09;;;;;;;;;2.00;1.00;;;;;18.70;51.90;101520.53;5073796;27;46194;-76
2023/01/06 07:59:34;;;;;;;;;0.75;0.00;;;;;18.56;52.05;101528.28;5063237;28;61288;-77
2023/01/06 08:01:59;;;;;;;;;0.00;0.00;;;;;18.41;52.12;101524.56;5055136;28;45532;-75
2023/01/06 08:04:25;;;;;;;;;0.00;0.00;;;;;18.37;51.70;101536.25;5072534;27;45547;-76
2023/01/06 08:06:50;;;;;;;;;0.00;0.00;;;;;18.24;52.39;101527.13;5041538;28;45304;-75
2023/01/06 08:09:15;;;;;;;;;0.50;0.50;;;;;18.20;52.29;101532.59;5062417;28;46422;-75
2023/01/06 08:11:41;;;;;;;;;1.50;0.75;;;;;18.13;52.21;101528.53;5056927;28;46792;-76
2023/01/06 08:14:06;;;;;;;;;0.75;0.75;;;;;18.03;52.29;101521.91;5080588;27;45495;-76
2023/01/06 08:16:32;;;;;;;;;2.50;0.00;;;;;17.94;52.13;101512.59;5061499;28;45471;-74
2023/01/06 08:18:57;;;;;;;;;0.00;0.00;;;;;17.90;52.53;101513.69;5038804;28;47475;-73
2023/01/06 08:21:22;;;;;;;;;0.25;0.00;;;;;17.96;52.93;101523.97;5041475;28;46169;-76
2023/01/06 08:23:48;;;;;;;;;0.00;0.00;;;;;18.17;53.42;101532.75;5038857;28;45540;-73
2023/01/06 08:26:16;;;;;;;;;0.00;0.00;;;;;18.36;53.44;101523.91;5055505;28;46940;-77
2023/01/06 08:28:43;;;;;;;;;0.00;0.00;;;;;18.54;53.60;101522.22;5037081;28;46996;-73
2023/01/06 08:31:10;;;;;;;;;0.00;0.00;;;;;18.73;53.97;101523.03;5039077;28;45724;-73
2023/01/06 08:33:36;;;;;;;;;0.50;0.00;;;;;18.90;53.86;101527.53;5055804;28;45949;-75
2023/01/06 08:36:04;;;;;;;;;0.75;0.75;;;;;19.06;53.83;101524.13;5058503;28;45528;-75
2023/01/06 08:38:30;;;;;;;;;0.00;0.00;;;;;19.23;54.03;101536.53;5085162;27;45975;-78
2023/01/06 08:40:57;;;;;;;;;0.50;0.00;;;;;19.32;54.25;101528.97;5057670;28;45252;-77
2023/01/06 08:43:23;;;;;;;;;1.00;0.00;;;;;19.45;53.92;101539.81;5038717;28;45511;-77
2023/01/06 08:45:49;;;;;;;;;0.00;0.00;;;;;19.50;53.97;101531.63;5059188;28;45375;-77
2023/01/06 08:48:14;;;;;;;;;0.00;0.00;;;;;19.59;54.02;101530.28;5037190;28;47989;-79
2023/01/06 08:50:43;;;;;;;;;0.00;0.00;;;;;19.70;53.82;101530.56;5074935;27;45970;-82
2023/01/06 08:53:09;;;;;;;;;0.00;0.00;;;;;19.73;53.99;101520.69;5056691;28;45358;-81
2023/01/06 08:55:39;;;;;;;;;0.00;0.00;;;;;19.81;53.91;101516.75;5068004;28;45372;-79
2023/01/06 08:58:05;;;;;;;;;0.00;0.00;;;;;19.86;54.21;101504.09;5038934;28;47099;-80
2023/01/06 09:00:31;;;;;;;;;0.00;0.00;;;;;20.09;53.71;101534.72;5046848;28;45892;-80
2023/01/06 09:02:56;;;;;;;;;0.00;0.00;;;;;20.06;54.23;101519.81;5036568;28;45478;-79
2023/01/06 09:05:22;;;;;;;;;0.00;0.00;;;;;20.28;54.14;101548.72;5063527;28;45574;-76
2023/01/06 09:07:49;;;;;;;;;0.00;0.00;;;;;20.34;53.94;101536.88;5063461;28;49627;-75
2023/01/06 09:10:15;;;;;;;;;0.00;0.00;;;;;20.36;54.18;101535.03;5056608;28;45446;-75
2023/01/06 09:12:41;;;;;;;;;0.00;0.00;;;;;20.43;53.96;101541.72;5055970;28;45381;-75
2023/01/06 09:15:06;;;;;;;;;0.00;0.00;;;;;20.50;53.94;101544.88;5044358;28;45414;-76
2023/01/06 09:17:32;;;;;;;;;0.00;0.00;;;;;20.30;53.52;101499.00;5057170;28;46560;-75
2023/01/06 09:19:57;;;;;;;;;1.00;0.00;;;;;20.56;53.96;101539.22;5058460;28;50222;-77
2023/01/06 09:22:23;;;;;;;;;0.00;0.00;;;;;20.56;53.81;101536.56;5052905;28;51710;-77
2023/01/06 09:24:48;;;;;;;;;0.50;0.00;;;;;20.59;53.40;101539.06;5067085;28;45311;-76
2023/01/06 09:27:16;;;;;;;;;0.00;0.00;;;;;20.59;53.82;101531.09;5041825;28;46879;-77
2023/01/06 09:29:41;;;;;;;;;0.00;0.00;;;;;20.64;54.03;101541.47;5058971;28;45762;-77
2023/01/06 09:32:06;;;;;;;;;0.00;0.00;;;;;20.62;53.49;101536.25;5089818;27;55495;-77
2023/01/06 09:34:32;;;;;;;;;0.00;0.00;;;;;20.65;53.78;101541.41;5061786;28;45509;-77
2023/01/06 09:36:57;;;;;;;;;0.00;0.00;;;;;20.53;53.38;101523.44;5073902;27;47263;-77
2023/01/06 09:39:23;;;;;;;;;0.00;0.00;;;;;20.49;53.37;101505.94;5058503;28;45563;-74
2023/01/06 09:42:19;;;;;;;;;0.00;0.00;;;;;20.74;53.41;101547.16;5059096;28;45397;-76
2023/01/06 09:44:54;;;;;;;;;0.00;0.00;;;;;20.62;53.49;101532.72;5058255;28;45599;-78
2023/01/06 09:47:25;;;;;;;;;0.00;0.00;;;;;20.63;53.75;101530.00;5058821;28;47179;-80
2023/01/06 09:50:16;;;;;;;;;0.00;0.00;;;;;20.61;53.79;101525.66;5057701;28;45650;-79
2023/01/06 09:52:46;;;;;;;;;0.00;0.00;;;;;20.77;53.34;101547.81;5039775;28;45530;-80
2023/01/06 09:55:19;;;;;;;;;0.00;0.00;;;;;20.62;53.80;101530.91;5059676;28;45513;-79
2023/01/06 09:57:55;;;;;;;;;0.00;0.00;;;;;20.69;53.64;101546.53;5046714;28;47454;-78
2023/01/06 10:00:35;;;;;;;;;0.00;0.00;;;;;20.69;53.17;101543.88;5045671;28;46201;-78
2023/01/06 10:03:00;;;;;;;;;0.00;0.00;;;;;20.68;53.38;101543.00;5055832;28;45792;-79
2023/01/06 10:05:54;;;;;;;;;0.00;0.00;;;;;20.67;53.65;101544.81;5093760;27;45470;-78
2023/01/06 10:08:34;;;;;;;;;0.00;0.00;;;;;20.69;53.10;101539.41;5053451;28;45766;-75
2023/01/06 10:11:11;;;;;;;;;0.00;0.00;;;;;20.81;53.13;101561.81;5058343;28;45459;-78
2023/01/06 10:13:37;;;;;;;;;0.00;0.00;;;;;20.79;53.05;101561.91;5039205;28;45476;-78
2023/01/06 10:16:27;;;;;;;;;0.75;0.00;;;;;20.73;53.51;101553.41;5058240;28;45391;-76
2023/01/06 10:19:06;;;;;;;;;0.00;0.00;;;;;20.82;53.44;101556.41;5053892;28;45582;-76
2023/01/06 10:21:33;;;;;;;;;0.00;0.00;;;;;20.83;53.28;101565.25;5059820;28;45753;-75
2023/01/06 10:24:22;;;;;;;;;0.00;0.00;;;;;20.83;53.51;101571.41;5056891;28;45479;-78
2023/01/06 10:26:52;;;;;;;;;0.00;0.00;;;;;20.76;53.07;101555.91;5040366;28;45457;-75
2023/01/06 10:29:19;;;;;;;;;0.00;0.00;;;;;20.80;53.48;101568.06;5047683;28;47376;-77
2023/01/06 10:31:46;;;;;;;;;0.00;0.00;;;;;20.78;53.18;101562.81;5058022;28;45837;-79
2023/01/06 10:34:18;;;;;;;;;0.00;0.00;;;;;20.73;53.29;101548.94;5056955;28;45481;-78
2023/01/06 10:36:46;;;;;;;;;0.00;0.00;;;;;20.88;53.41;101567.66;5050154;28;45383;-78
2023/01/06 10:39:14;;;;;;;;;1.75;0.00;;;;;20.67;52.93;101539.50;5074738;28;48184;-77
2023/01/06 10:41:52;;;;;;;;;0.00;0.00;;;;;20.89;53.22;101558.69;5055320;28;45504;-78
2023/01/06 10:44:19;;;;;;;;;0.00;0.00;;;;;20.78;52.98;101548.69;5065176;28;45594;-78
2023/01/06 10:46:46;;;;;;;;;0.00;0.00;;;;;20.86;52.96;101557.09;5047413;28;47374;-77
2023/01/06 10:49:17;;;;;;;;;0.00;0.00;;;;;20.77;52.81;101545.16;5062570;28;46473;-78
2023/01/06 10:51:47;;;;;;;;;0.00;0.00;;;;;20.82;53.05;101550.22;5062638;28;45466;-77
2023/01/06 10:54:21;;;;;;;;;0.00;0.00;;;;;20.84;53.26;101545.66;5072009;27;45343;-77
2023/01/06 10:57:33;;;;;;;;;0.00;0.00;;;;;20.97;52.98;101556.47;5064229;28;45370;-76
2023/01/06 11:00:15;;;;;;;;;0.00;0.00;;;;;20.99;52.84;101547.44;5061202;28;46179;-77
2023/01/06 11:02:51;;;;;;;;;0.00;0.00;;;;;21.05;52.97;101543.56;5045071;28;45347;-77
2023/01/06 11:05:20;;;;;;;;;0.00;0.00;;;;;20.97;52.94;101530.72;5045660;28;45483;-77
2023/01/06 11:07:56;;;;;;;;;0.50;0.00;;;;;21.11;52.91;101543.22;5042087;28;45707;-77
2023/01/06 11:10:31;;;;;;;;;0.75;0.00;;;;;21.14;53.23;101543.03;5051825;28;47527;-76
2023/01/06 11:12:58;;;;;;;;;0.00;0.00;;;;;21.16;53.26;101537.59;5060403;28;45371;-76
2023/01/06 11:15:31;;;;;;;;;0.00;0.00;;;;;21.13;53.29;101529.81;5060252;28;45479;-76
2023/01/06 11:17:57;;;;;;;;;0.00;0.00;;;;;21.18;52.99;101533.06;5060154;28;45430;-76
2023/01/06 11:20:22;;;;;;;;;0.00;0.00;;;;;21.20;53.16;101529.34;5062423;28;45390;-77
2023/01/06 11:22:47;;;;;;;;;0.00;0.00;;;;;21.16;53.06;101516.31;5062733;28;45211;-73
2023/01/06 11:25:19;;;;;;;;;0.00;0.00;;;;;21.22;52.73;101514.16;5066043;28;45660;-76
2023/01/06 11:28:08;;;;;;;;;0.00;0.00;;;;;21.20;53.12;101515.19;5056515;28;45459;-79
2023/01/06 11:30:39;;;;;;;;;0.00;0.00;;;;;21.21;52.92;101509.78;5060834;28;46910;-75
2023/01/06 11:33:14;;;;;;;;;3.00;0.00;;;;;21.08;52.80;101490.16;5052055;28;46112;-77
2023/01/06 11:35:40;;;;;;;;;0.00;0.00;;;;;21.27;53.23;101521.88;5070708;28;45256;-73
2023/01/06 11:38:11;;;;;;;;;0.00;0.00;;;;;21.27;53.33;101513.03;5061363;27;45309;-74
2023/01/06 11:40:37;;;;;;;;;0.75;0.00;;;;;21.30;53.22;101510.16;5058534;28;47739;-74
2023/01/06 11:43:09;;;;;;;;;0.00;0.00;;;;;21.28;53.20;101507.59;5056801;28;45351;-73